createdAt,value
2022-08-01T00:00:09.435Z,96161.09
2022-08-01T00:02:37.664Z,96154.63
2022-08-01T00:05:07.414Z,96151.91
2022-08-01T00:07:35.169Z,96162.31
2022-08-01T00:10:02.590Z,96157.25
2022-08-01T00:12:29.449Z,96165.38
2022-08-01T00:14:55.852Z,96160.00
2022-08-01T00:17:22.379Z,96158.44
2022-08-01T00:19:49.333Z,96160.56
2022-08-01T00:22:15.763Z,96151.72
2022-08-01T00:24:42.172Z,96161.16
2022-08-01T00:27:09.086Z,96156.63
2022-08-01T00:30:10.280Z,96159.78
2022-08-01T00:32:22.336Z,96163.25
2022-08-01T00:34:48.719Z,96159.78
2022-08-01T00:37:16.938Z,96155.75
2022-08-01T00:39:43.476Z,96156.28
2022-08-01T00:42:12.837Z,96158.53
2022-08-01T00:44:39.871Z,96150.75
2022-08-01T00:47:06.592Z,96155.50
2022-08-01T00:49:33.915Z,96153.09
2022-08-01T00:52:00.916Z,96152.88
2022-08-01T00:54:28.085Z,96157.75
2022-08-01T00:56:56.207Z,96163.63
2022-08-01T00:59:23.652Z,96156.63
2022-08-01T01:01:52.584Z,96152.34
2022-08-01T01:04:20.778Z,96158.53
2022-08-01T01:07:14.751Z,96160.00
2022-08-01T01:09:59.049Z,96159.78
2022-08-01T01:12:50.017Z,96156.88
2022-08-01T01:15:23.968Z,96158.03
2022-08-01T01:18:03.432Z,96153.50
2022-08-01T01:20:37.770Z,96159.44
2022-08-01T01:23:21.792Z,96163.44
2022-08-01T01:25:55.489Z,96163.13
2022-08-01T01:28:35.232Z,96169.00
2022-08-01T01:31:03.220Z,96166.31
2022-08-01T01:33:32.740Z,96165.81
2022-08-01T01:36:04.583Z,96164.50
2022-08-01T01:38:42.935Z,96160.19
2022-08-01T01:41:12.327Z,96163.94
2022-08-01T01:43:40.394Z,96157.22
2022-08-01T01:46:10.364Z,96169.81
2022-08-01T01:48:38.613Z,96166.31
2022-08-01T01:51:06.796Z,96154.22
2022-08-01T01:53:34.916Z,96162.31
2022-08-01T01:56:03.327Z,96153.81
2022-08-01T01:58:32.595Z,96150.47
2022-08-01T02:01:02.817Z,96162.63
2022-08-01T02:03:32.464Z,96159.91
2022-08-01T02:06:00.648Z,96165.81
2022-08-01T02:08:30.707Z,96153.84
2022-08-01T02:11:18.809Z,96154.72
2022-08-01T02:13:59.429Z,96151.53
2022-08-01T02:16:29.910Z,96158.53
2022-08-01T02:18:57.335Z,96151.53
2022-08-01T02:22:02.175Z,96150.53
2022-08-01T02:24:39.521Z,96156.44
2022-08-01T02:27:10.958Z,96157.50
2022-08-01T02:29:53.909Z,96153.84
2022-08-01T02:32:58.300Z,96166.31
2022-08-01T02:35:29.248Z,96165.28
2022-08-01T02:37:58.139Z,96164.53
2022-08-01T02:40:27.266Z,96171.78
2022-08-01T02:42:57.019Z,96159.47
2022-08-01T02:45:26.140Z,96167.59
2022-08-01T02:47:57.357Z,96162.50
2022-08-01T02:50:25.422Z,96171.34
2022-08-01T02:52:53.645Z,96171.56
2022-08-01T02:55:21.582Z,96172.34
2022-08-01T02:57:51.750Z,96166.13
2022-08-01T03:00:19.967Z,96167.41
2022-08-01T03:02:49.771Z,96166.63
2022-08-01T03:05:18.073Z,96159.38
2022-08-01T03:07:45.955Z,96156.38
2022-08-01T03:10:17.477Z,96163.84
2022-08-01T03:12:46.379Z,96160.03
2022-08-01T03:15:16.777Z,96169.47
2022-08-01T03:17:47.143Z,96173.25
2022-08-01T03:20:16.104Z,96166.28
2022-08-01T03:22:45.137Z,96172.50
2022-08-01T03:25:14.539Z,96169.84
2022-08-01T03:27:49.529Z,96173.63
2022-08-01T03:30:16.482Z,96170.16
2022-08-01T03:32:43.191Z,96173.91
2022-08-01T03:35:10.672Z,96176.06
2022-08-01T03:38:14.749Z,96177.06
2022-08-01T03:40:41.377Z,96172.25
2022-08-01T03:43:30.174Z,96185.69
2022-08-01T03:46:04.549Z,96180.66
2022-08-01T03:48:33.858Z,96183.66
2022-08-01T03:51:00.703Z,96192.81
2022-08-01T03:53:30.960Z,96181.56
2022-08-01T03:56:01.554Z,96188.63
2022-08-01T03:58:29.084Z,96176.78
2022-08-01T04:00:56.069Z,96182.75
2022-08-01T04:03:24.742Z,96183.88
2022-08-01T04:05:51.471Z,96186.03
2022-08-01T04:08:17.920Z,96189.28
2022-08-01T04:10:44.849Z,96188.69
2022-08-01T04:13:11.660Z,96188.16
2022-08-01T04:15:38.393Z,96187.03
2022-08-01T04:18:04.808Z,96196.19
2022-08-01T04:20:31.225Z,96196.22
2022-08-01T04:22:58.572Z,96198.31
2022-08-01T04:25:33.836Z,96199.72
2022-08-01T04:28:05.402Z,96206.44
2022-08-01T04:30:35.418Z,96209.09
2022-08-01T04:33:06.599Z,96205.94
2022-08-01T04:36:02.667Z,96222.59
2022-08-01T04:38:28.153Z,96217.53
2022-08-01T04:40:56.039Z,96222.41
2022-08-01T04:43:23.243Z,96219.47
2022-08-01T04:45:51.477Z,96217.34
2022-08-01T04:48:22.624Z,96212.22
2022-08-01T04:50:49.652Z,96218.72
2022-08-01T04:53:17.713Z,96222.53
2022-08-01T04:55:45.372Z,96218.47
2022-08-01T04:58:16.142Z,96221.66
2022-08-01T05:00:44.254Z,96226.25
2022-08-01T05:03:11.161Z,96230.59
2022-08-01T05:05:37.525Z,96235.69
2022-08-01T05:08:04.118Z,96231.34
2022-08-01T05:10:32.033Z,96242.94
2022-08-01T05:12:58.756Z,96239.91
2022-08-01T05:15:25.126Z,96248.03
2022-08-01T05:17:52.041Z,96243.97
2022-08-01T05:20:18.497Z,96245.06
2022-08-01T05:22:44.891Z,96252.34
2022-08-01T05:25:12.744Z,96241.03
2022-08-01T05:27:44.962Z,96246.41
2022-08-01T05:30:12.096Z,96254.56
2022-08-01T05:32:39.032Z,96253.44
2022-08-01T05:35:06.133Z,96253.78
2022-08-01T05:37:32.908Z,96252.38
2022-08-01T05:39:59.282Z,96249.66
2022-08-01T05:42:25.686Z,96252.81
2022-08-01T05:44:52.576Z,96252.56
2022-08-01T05:47:19.267Z,96251.63
2022-08-01T05:49:46.658Z,96255.63
2022-08-01T05:52:13.760Z,96254.72
2022-08-01T05:54:40.394Z,96243.03
2022-08-01T05:57:07.162Z,96253.50
2022-08-01T05:59:33.556Z,96245.69
2022-08-01T06:02:01.430Z,96249.19
2022-08-01T06:04:28.016Z,96244.78
2022-08-01T06:06:54.394Z,96247.19
2022-08-01T06:09:21.162Z,96250.91
2022-08-01T06:11:47.911Z,96252.25
2022-08-01T06:14:14.268Z,96264.00
2022-08-01T06:16:40.724Z,96262.31
2022-08-01T06:19:07.088Z,96260.75
2022-08-01T06:21:33.455Z,96261.97
2022-08-01T06:23:59.836Z,96260.41
2022-08-01T06:26:26.499Z,96267.97
2022-08-01T06:28:52.881Z,96261.66
2022-08-01T06:31:19.634Z,96266.47
2022-08-01T06:33:45.978Z,96263.22
2022-08-01T06:36:12.953Z,96263.44
2022-08-01T06:38:39.363Z,96267.59
2022-08-01T06:41:05.708Z,96261.06
2022-08-01T06:43:32.576Z,96268.56
2022-08-01T06:45:58.979Z,96264.81
2022-08-01T06:48:25.847Z,96277.00
2022-08-01T06:51:08.493Z,96265.88
2022-08-01T06:53:39.559Z,96262.72
2022-08-01T06:56:07.924Z,96255.91
2022-08-01T06:58:35.570Z,96259.88
2022-08-01T07:01:03.261Z,96261.66
2022-08-01T07:03:52.352Z,96263.91
2022-08-01T07:06:18.699Z,96253.31
2022-08-01T07:08:45.050Z,96258.63
2022-08-01T07:11:11.401Z,96252.13
2022-08-01T07:13:44.302Z,96248.19
2022-08-01T07:16:13.258Z,96247.50
2022-08-01T07:18:40.004Z,96244.63
2022-08-01T07:21:06.377Z,96241.53
2022-08-01T07:23:45.994Z,96242.72
2022-08-01T07:26:14.121Z,96245.63
2022-08-01T07:28:43.768Z,96244.94
2022-08-01T07:31:10.998Z,96247.91
2022-08-01T07:33:48.738Z,96248.56
2022-08-01T07:36:17.455Z,96240.81
2022-08-01T07:38:44.590Z,96246.22
2022-08-01T07:41:11.111Z,96248.94
2022-08-01T07:43:37.990Z,96237.63
2022-08-01T07:46:05.275Z,96234.28
2022-08-01T07:48:32.739Z,96238.16
2022-08-01T07:50:59.126Z,96234.19
2022-08-01T07:53:25.600Z,96237.69
2022-08-01T07:55:52.659Z,96234.25
2022-08-01T07:58:19.028Z,96231.59
2022-08-01T08:00:45.395Z,96237.94
2022-08-01T08:03:12.587Z,96238.47
2022-08-01T08:05:58.123Z,96232.22
2022-08-01T08:08:25.618Z,96229.84
2022-08-01T08:10:52.440Z,96227.16
2022-08-01T08:13:18.775Z,96230.56
2022-08-01T08:15:48.507Z,96224.34
2022-08-01T08:18:15.756Z,96219.31
2022-08-01T08:20:42.185Z,96221.50
2022-08-01T08:23:42.610Z,96225.13
2022-08-01T08:26:10.820Z,96226.28
2022-08-01T08:28:37.589Z,96222.63
2022-08-01T08:31:04.080Z,96220.69
2022-08-01T08:33:30.571Z,96219.81
2022-08-01T08:35:57.366Z,96219.81
2022-08-01T08:38:28.452Z,96228.78
2022-08-01T08:40:57.768Z,96227.28
2022-08-01T08:43:25.844Z,96223.78
2022-08-01T08:45:59.064Z,96221.13
2022-08-01T08:48:28.194Z,96221.84
2022-08-01T08:50:56.206Z,96228.31
2022-08-01T08:53:23.183Z,96223.63
2022-08-01T08:55:55.855Z,96226.28
2022-08-01T08:58:30.459Z,96226.31
2022-08-01T09:00:58.595Z,96223.72
2022-08-01T09:03:25.015Z,96231.47
2022-08-01T09:05:51.403Z,96230.03
2022-08-01T09:08:18.191Z,96238.75
2022-08-01T09:10:44.771Z,96240.22
2022-08-01T09:13:13.927Z,96235.91
2022-08-01T09:15:46.745Z,96237.78
2022-08-01T09:18:28.761Z,96241.50
2022-08-01T09:21:19.455Z,96231.31
2022-08-01T09:23:54.427Z,96229.63
2022-08-01T09:26:31.505Z,96231.91
2022-08-01T09:28:58.434Z,96233.59
2022-08-01T09:31:38.199Z,96240.06
2022-08-01T09:34:05.783Z,96237.44
2022-08-01T09:36:59.726Z,96226.63
2022-08-01T09:39:29.659Z,96226.16
2022-08-01T09:41:58.660Z,96233.81
2022-08-01T09:44:55.234Z,96231.84
2022-08-01T09:47:23.772Z,96226.03
2022-08-01T09:49:59.580Z,96222.53
2022-08-01T09:52:28.985Z,96228.56
2022-08-01T09:55:02.432Z,96226.09
2022-08-01T09:57:29.786Z,96228.78
2022-08-01T10:00:02.109Z,96226.91
2022-08-01T10:02:39.976Z,96220.22
2022-08-01T10:05:09.551Z,96220.41
2022-08-01T10:07:43.532Z,96222.59
2022-08-01T10:10:16.523Z,96218.69
2022-08-01T10:12:45.460Z,96214.53
2022-08-01T10:15:15.517Z,96214.53
2022-08-01T10:17:50.294Z,96203.00
2022-08-01T10:20:21.807Z,96212.97
2022-08-01T10:23:00.487Z,96209.72
2022-08-01T10:25:42.850Z,96220.13
2022-08-01T10:28:23.849Z,96221.31
2022-08-01T10:30:50.823Z,96205.69
2022-08-01T10:33:49.796Z,96204.09
2022-08-01T10:36:08.542Z,96206.31
2022-08-01T10:38:37.227Z,96208.00
2022-08-01T10:41:06.487Z,96201.03
2022-08-01T10:43:35.361Z,96209.84
2022-08-01T10:46:02.929Z,96202.16
2022-08-01T10:48:37.541Z,96194.88
2022-08-01T10:51:17.490Z,96203.84
2022-08-01T10:53:54.476Z,96206.56
2022-08-01T10:56:26.392Z,96207.53
2022-08-01T10:59:06.577Z,96204.00
2022-08-01T11:01:38.642Z,96200.06
2022-08-01T11:04:16.577Z,96199.94
2022-08-01T11:06:53.292Z,96191.09
2022-08-01T11:09:36.043Z,96180.75
2022-08-01T11:12:13.557Z,96177.25
2022-08-01T11:15:17.020Z,96181.50
2022-08-01T11:17:56.096Z,96178.66
2022-08-01T11:20:31.917Z,96182.16
2022-08-01T11:23:02.232Z,96172.69
2022-08-01T11:26:03.155Z,96177.22
2022-08-01T11:28:30.165Z,96161.09
2022-08-01T11:31:22.769Z,96177.41
2022-08-01T11:33:50.322Z,96159.66
2022-08-01T11:36:36.872Z,96173.75
2022-08-01T11:39:13.179Z,96173.41
2022-08-01T11:41:41.520Z,96178.25
2022-08-01T11:44:14.804Z,96177.25
2022-08-01T11:46:57.543Z,96162.59
2022-08-01T11:49:30.076Z,96158.06
2022-08-01T11:52:04.162Z,96155.47
2022-08-01T11:54:36.186Z,96158.88
2022-08-01T11:57:12.993Z,96167.13
2022-08-01T12:00:03.165Z,96155.72
2022-08-01T12:02:35.446Z,96154.00
2022-08-01T12:05:08.181Z,96148.88
2022-08-01T12:07:37.239Z,96155.16
2022-08-01T12:10:07.818Z,96150.00
2022-08-01T12:12:36.339Z,96149.06
2022-08-01T12:15:09.949Z,96133.75
2022-08-01T12:17:39.739Z,96137.59
2022-08-01T12:20:20.148Z,96143.00
2022-08-01T12:22:47.115Z,96144.28
2022-08-01T12:25:18.119Z,96135.94
2022-08-01T12:27:46.287Z,96143.34
2022-08-01T12:30:15.651Z,96138.09
2022-08-01T12:32:44.937Z,96136.22
2022-08-01T12:35:18.522Z,96137.22
2022-08-01T12:37:49.547Z,96139.75
2022-08-01T12:40:20.812Z,96131.56
2022-08-01T12:42:50.275Z,96139.22
2022-08-01T12:45:21.267Z,96134.84
2022-08-01T12:47:48.755Z,96135.81
2022-08-01T12:50:18.014Z,96135.06
2022-08-01T12:52:45.215Z,96138.25
2022-08-01T12:55:33.971Z,96142.28
2022-08-01T12:58:15.390Z,96136.50
2022-08-01T13:00:45.113Z,96140.81
2022-08-01T13:03:16.808Z,96151.69
2022-08-01T13:05:43.782Z,96136.69
2022-08-01T13:08:14.349Z,96141.09
2022-08-01T13:10:42.694Z,96152.06
2022-08-01T13:13:10.082Z,96155.59
2022-08-01T13:15:41.832Z,96146.09
2022-08-01T13:18:28.167Z,96149.03
2022-08-01T13:21:13.158Z,96145.28
2022-08-01T13:24:02.853Z,96145.13
2022-08-01T13:26:47.778Z,96141.63
2022-08-01T13:29:16.436Z,96136.91
2022-08-01T13:31:43.319Z,96146.03
2022-08-01T13:34:10.618Z,96136.69
2022-08-01T13:36:38.655Z,96135.69
2022-08-01T13:39:24.711Z,96142.22
2022-08-01T13:41:51.359Z,96143.28
2022-08-01T13:44:17.779Z,96130.84
2022-08-01T13:46:49.264Z,96138.91
2022-08-01T13:49:16.746Z,96126.34
2022-08-01T13:51:43.641Z,96128.88
2022-08-01T13:54:10.190Z,96125.97
2022-08-01T13:56:37.728Z,96135.19
2022-08-01T13:59:04.134Z,96132.72
2022-08-01T14:01:34.254Z,96136.47
2022-08-01T14:04:01.940Z,96135.19
2022-08-01T14:06:28.396Z,96128.88
2022-08-01T14:08:55.243Z,96131.91
2022-08-01T14:11:22.089Z,96127.50
2022-08-01T14:13:48.890Z,96125.50
2022-08-01T14:16:17.079Z,96130.97
2022-08-01T14:18:44.419Z,96132.00
2022-08-01T14:21:11.316Z,96142.34
2022-08-01T14:23:37.757Z,96132.13
2022-08-01T14:26:11.443Z,96133.53
2022-08-01T14:28:39.927Z,96141.91
2022-08-01T14:31:10.080Z,96138.41
2022-08-01T14:33:37.266Z,96140.94
2022-08-01T14:36:20.717Z,96130.03
2022-08-01T14:38:51.179Z,96139.88
2022-08-01T14:41:17.595Z,96132.06
2022-08-01T14:43:44.153Z,96126.38
2022-08-01T14:46:11.024Z,96138.13
2022-08-01T14:48:38.208Z,96133.47
2022-08-01T14:51:05.113Z,96133.22
2022-08-01T14:53:34.267Z,96131.63
2022-08-01T14:56:02.308Z,96132.31
2022-08-01T14:58:28.661Z,96130.47
2022-08-01T15:00:58.654Z,96126.56
2022-08-01T15:03:26.648Z,96121.25
2022-08-01T15:05:53.134Z,96125.84
2022-08-01T15:08:19.491Z,96131.81
2022-08-01T15:10:46.378Z,96135.16
2022-08-01T15:13:12.985Z,96127.69
2022-08-01T15:15:39.399Z,96133.81
2022-08-01T15:18:06.305Z,96137.75
2022-08-01T15:20:33.753Z,96125.00
2022-08-01T15:23:00.203Z,96133.84
2022-08-01T15:25:26.886Z,96134.41
2022-08-01T15:28:07.133Z,96124.44
2022-08-01T15:30:34.468Z,96120.81
2022-08-01T15:33:00.856Z,96130.66
2022-08-01T15:35:27.240Z,96126.75
2022-08-01T15:37:54.229Z,96119.41
2022-08-01T15:40:20.581Z,96110.59
2022-08-01T15:42:47.055Z,96114.59
2022-08-01T15:45:46.271Z,96106.47
2022-08-01T15:48:06.353Z,96105.94
2022-08-01T15:50:33.376Z,96103.75
2022-08-01T15:53:00.159Z,96110.72
2022-08-01T15:55:26.610Z,96109.31
2022-08-01T15:57:53.615Z,96118.16
2022-08-01T16:00:19.996Z,96111.19
2022-08-01T16:02:47.039Z,96105.31
2022-08-01T16:05:14.051Z,96103.97
2022-08-01T16:07:59.921Z,96099.66
2022-08-01T16:10:29.131Z,96103.34
2022-08-01T16:12:55.660Z,96097.09
2022-08-01T16:15:22.579Z,96094.66
2022-08-01T16:18:02.033Z,96094.66
2022-08-01T16:20:28.800Z,96083.13
2022-08-01T16:22:55.149Z,96082.34
2022-08-01T16:25:21.569Z,96081.00
2022-08-01T16:27:48.412Z,96082.22
2022-08-01T16:30:14.793Z,96079.44
2022-08-01T16:32:47.134Z,96089.13
2022-08-01T16:35:18.634Z,96092.63
2022-08-01T16:37:45.494Z,96099.34
2022-08-01T16:40:12.262Z,96096.75
2022-08-01T16:42:38.651Z,96108.16
2022-08-01T16:45:08.747Z,96108.47
2022-08-01T16:47:40.088Z,96119.16
2022-08-01T16:50:07.296Z,96127.75
2022-08-01T16:52:33.646Z,96136.78
2022-08-01T16:55:10.326Z,96135.59
2022-08-01T16:57:38.230Z,96135.03
2022-08-01T17:00:08.755Z,96163.66
2022-08-01T17:02:38.530Z,96173.50
2022-08-01T17:05:07.743Z,96180.81
2022-08-01T17:07:36.319Z,96190.44
2022-08-01T17:10:03.616Z,96193.34
2022-08-01T17:12:30.875Z,96195.50
2022-08-01T17:14:57.272Z,96186.09
2022-08-01T17:17:23.846Z,96175.06
2022-08-01T17:19:52.602Z,96186.09
2022-08-01T17:22:19.505Z,96194.41
2022-08-01T17:24:46.376Z,96211.41
2022-08-01T17:27:13.774Z,96216.72
2022-08-01T17:29:43.513Z,96216.22
2022-08-01T17:32:11.298Z,96213.03
2022-08-01T17:34:39.832Z,96222.72
2022-08-01T17:37:06.610Z,96222.19
2022-08-01T17:39:39.258Z,96231.38
2022-08-01T17:42:08.222Z,96226.78
2022-08-01T17:44:35.383Z,96228.91
2022-08-01T17:47:02.082Z,96224.91
2022-08-01T17:49:53.225Z,96226.78
2022-08-01T17:52:15.215Z,96212.50
2022-08-01T17:54:41.754Z,96214.13
2022-08-01T17:57:08.842Z,96213.03
2022-08-01T17:59:36.170Z,96204.09
2022-08-01T18:02:02.764Z,96195.69
2022-08-01T18:04:33.746Z,96188.50
2022-08-01T18:07:00.846Z,96180.16
2022-08-01T18:09:32.964Z,96186.09
2022-08-01T18:12:02.113Z,96191.75
2022-08-01T18:14:32.621Z,96195.63
2022-08-01T18:17:11.327Z,96193.00
2022-08-01T18:19:38.641Z,96200.56
2022-08-01T18:22:05.964Z,96203.19
2022-08-01T18:24:52.720Z,96214.56
2022-08-01T18:27:19.135Z,96210.97
2022-08-01T18:29:48.323Z,96217.38
2022-08-01T18:32:15.102Z,96211.00
2022-08-01T18:34:42.060Z,96211.91
2022-08-01T18:37:10.155Z,96207.53
2022-08-01T18:39:39.409Z,96197.88
2022-08-01T18:42:06.290Z,96208.66
2022-08-01T18:44:33.586Z,96216.72
2022-08-01T18:47:00.029Z,96210.25
2022-08-01T18:49:26.448Z,96208.66
2022-08-01T18:51:54.668Z,96222.91
2022-08-01T18:54:22.811Z,96224.66
2022-08-01T18:56:49.712Z,96211.97
2022-08-01T18:59:16.540Z,96209.03
2022-08-01T19:01:43.446Z,96212.53
2022-08-01T19:04:11.298Z,96216.53
2022-08-01T19:06:38.679Z,96222.53
2022-08-01T19:09:07.201Z,96221.91
2022-08-01T19:11:34.885Z,96213.84
2022-08-01T19:14:02.196Z,96216.59
2022-08-01T19:16:29.000Z,96218.19
2022-08-01T19:18:55.955Z,96220.59
2022-08-01T19:21:23.091Z,96226.19
2022-08-01T19:24:08.530Z,96214.97
2022-08-01T19:26:35.979Z,96217.13
2022-08-01T19:29:10.026Z,96219.19
2022-08-01T19:31:39.551Z,96228.69
2022-08-01T19:34:07.425Z,96226.00
2022-08-01T19:36:35.034Z,96230.03
2022-08-01T19:39:01.840Z,96242.00
2022-08-01T19:41:29.783Z,96248.81
2022-08-01T19:43:58.651Z,96242.41
2022-08-01T19:46:25.400Z,96250.69
2022-08-01T19:48:54.066Z,96250.78
2022-08-01T19:51:22.670Z,96260.63
2022-08-01T19:54:04.131Z,96259.47
2022-08-01T19:56:37.583Z,96268.59
2022-08-01T19:59:04.851Z,96268.78
2022-08-01T20:01:32.146Z,96280.88
2022-08-01T20:04:03.857Z,96279.50
2022-08-01T20:06:31.108Z,96284.34
2022-08-01T20:08:58.410Z,96281.88
2022-08-01T20:11:26.162Z,96290.88
2022-08-01T20:13:52.953Z,96296.47
2022-08-01T20:16:19.352Z,96311.00
2022-08-01T20:18:46.215Z,96316.41
2022-08-01T20:21:13.446Z,96334.19
2022-08-01T20:23:41.331Z,96333.53
2022-08-01T20:26:09.609Z,96338.16
2022-08-01T20:28:41.656Z,96352.91
2022-08-01T20:31:10.174Z,96352.09
2022-08-01T20:33:43.027Z,96358.63
2022-08-01T20:36:12.362Z,96354.06
2022-08-01T20:38:56.645Z,96360.16
2022-08-01T20:41:24.754Z,96370.31
2022-08-01T20:43:57.572Z,96382.09
2022-08-01T20:46:27.914Z,96380.38
2022-08-01T20:48:55.934Z,96392.56
2022-08-01T20:51:27.167Z,96406.56
2022-08-01T20:53:54.588Z,96408.25
2022-08-01T20:56:57.071Z,96435.63
2022-08-01T20:59:39.601Z,96414.00
2022-08-01T21:02:28.817Z,96398.97
2022-08-01T21:04:57.875Z,96388.56
2022-08-01T21:07:31.509Z,96388.22
2022-08-01T21:10:08.985Z,96384.72
2022-08-01T21:12:45.183Z,96392.66
2022-08-01T21:15:22.875Z,96398.41
2022-08-01T21:18:03.262Z,96395.88
2022-08-01T21:20:32.688Z,96402.84
2022-08-01T21:23:10.046Z,96399.25
2022-08-01T21:25:36.854Z,96414.56
2022-08-01T21:28:04.588Z,96416.69
2022-08-01T21:30:35.573Z,96423.75
2022-08-01T21:33:04.434Z,96423.44
2022-08-01T21:35:32.520Z,96416.97
2022-08-01T21:38:01.946Z,96409.31
2022-08-01T21:40:31.971Z,96415.72
2022-08-01T21:43:01.035Z,96405.31
2022-08-01T21:45:28.872Z,96405.84
2022-08-01T21:47:57.032Z,96404.06
2022-08-01T21:50:24.203Z,96397.56
2022-08-01T21:53:02.719Z,96404.00
2022-08-01T21:56:15.057Z,96392.63
2022-08-01T21:58:57.071Z,96388.50
2022-08-01T22:01:51.575Z,96376.47
2022-08-01T22:04:26.819Z,96381.16
2022-08-01T22:06:54.323Z,96364.28
2022-08-01T22:09:21.947Z,96358.25
2022-08-01T22:12:01.309Z,96362.31
2022-08-01T22:14:29.899Z,96359.63
2022-08-01T22:16:59.115Z,96358.00
2022-08-01T22:19:32.730Z,96361.47
2022-08-01T22:22:44.703Z,96367.69
2022-08-01T22:25:00.016Z,96362.44
2022-08-01T22:28:08.096Z,96363.88
2022-08-01T22:30:15.610Z,96366.19
2022-08-01T22:32:43.351Z,96369.81
2022-08-01T22:35:14.343Z,96366.06
2022-08-01T22:37:57.496Z,96362.50
2022-08-01T22:40:24.138Z,96370.84
2022-08-01T22:42:59.942Z,96374.44
2022-08-01T22:45:44.784Z,96387.13
2022-08-01T22:48:11.514Z,96384.25
2022-08-01T22:50:56.280Z,96387.72
2022-08-01T22:53:53.587Z,96385.84
2022-08-01T22:56:21.452Z,96377.53
2022-08-01T22:58:48.700Z,96368.31
2022-08-01T23:01:21.885Z,96370.44
2022-08-01T23:03:50.599Z,96363.06
2022-08-01T23:06:24.236Z,96373.75
2022-08-01T23:08:50.936Z,96369.13
2022-08-01T23:11:21.129Z,96357.00
2022-08-01T23:13:50.892Z,96363.75
2022-08-01T23:16:17.835Z,96352.94
2022-08-01T23:18:46.236Z,96355.78
2022-08-01T23:21:13.696Z,96346.97
2022-08-01T23:23:40.148Z,96348.31
2022-08-01T23:26:07.067Z,96353.75
2022-08-01T23:28:34.202Z,96339.13
2022-08-01T23:31:02.409Z,96347.13
2022-08-01T23:33:28.845Z,96347.34
2022-08-01T23:35:55.903Z,96346.63
2022-08-01T23:38:22.356Z,96354.09
2022-08-01T23:40:50.001Z,96357.16
2022-08-01T23:43:17.769Z,96360.09
2022-08-01T23:46:04.398Z,96358.22
2022-08-01T23:48:32.847Z,96351.63
2022-08-01T23:50:59.795Z,96356.78
2022-08-01T23:53:30.626Z,96358.94
2022-08-01T23:55:58.628Z,96360.59
2022-08-01T23:58:25.416Z,96364.34
